Paraiba do Sul, Brazil
Current Conditions -  °F | °C
As of 7:00 AM on Saturday 20 Dec 2014 (Local Time) from SBGL Reporting Station
Scattered Clouds Scattered Clouds  
Wind Chill: 77°   Ceiling: Unl
Heat Index: 79°   Visibility: 5mi
Dew Point: 70°   Wind: 3mph
Humidity: 78%   Direction: 160°SSE
Pressure: 29.77"   Gusts: NA
Location:  22.16°S, 43.29°W
Report Text: SBGL 200900Z 16003KT 8000 FEW020 SCT100 25/21 Q1008
Loading
Personal Weather Stations






























Interactive Weather Map New forecast layout! Learn more

10-Day Weather Forecast

Advertisements
Track Severe Weather on mobile